sensor_id;sensor_type;location;lat;lon;timestamp;pressure;altitude;pressure_sealevel;temperature;humidity
70982;BME280;58640;51.320;9.456;2022-10-04T00:04:53;100243.88;;;6.91;88.25
70982;BME280;58640;51.320;9.456;2022-10-04T00:07:25;100245.84;;;6.89;88.50
70982;BME280;58640;51.320;9.456;2022-10-04T00:09:57;100256.81;;;6.86;88.65
70982;BME280;58640;51.320;9.456;2022-10-04T00:12:27;100261.13;;;6.78;89.05
70982;BME280;58640;51.320;9.456;2022-10-04T00:14:57;100267.72;;;6.74;88.81
70982;BME280;58640;51.320;9.456;2022-10-04T00:17:27;100260.69;;;6.73;89.39
70982;BME280;58640;51.320;9.456;2022-10-04T00:19:54;100252.00;;;6.80;88.65
70982;BME280;58640;51.320;9.456;2022-10-04T00:22:39;100258.47;;;6.78;89.22
70982;BME280;58640;51.320;9.456;2022-10-04T00:27:39;100261.19;;;6.87;88.28
70982;BME280;58640;51.320;9.456;2022-10-04T00:30:24;100258.25;;;6.90;88.14
70982;BME280;58640;51.320;9.456;2022-10-04T00:33:00;100241.06;;;6.93;88.32
70982;BME280;58640;51.320;9.456;2022-10-04T00:38:12;100231.00;;;7.06;88.36
70982;BME280;58640;51.320;9.456;2022-10-04T00:40:55;100223.88;;;7.16;88.79
70982;BME280;58640;51.320;9.456;2022-10-04T00:43:26;100226.81;;;7.13;89.35
70982;BME280;58640;51.320;9.456;2022-10-04T00:46:16;100228.94;;;7.19;88.70
70982;BME280;58640;51.320;9.456;2022-10-04T00:48:49;100227.00;;;7.21;89.15
70982;BME280;58640;51.320;9.456;2022-10-04T00:51:33;100221.66;;;7.21;89.28
70982;BME280;58640;51.320;9.456;2022-10-04T00:54:21;100222.91;;;7.26;89.51
70982;BME280;58640;51.320;9.456;2022-10-04T00:57:08;100225.94;;;7.42;88.41
70982;BME280;58640;51.320;9.456;2022-10-04T00:59:49;100205.28;;;7.64;87.58
70982;BME280;58640;51.320;9.456;2022-10-04T01:02:24;100204.66;;;7.51;90.50
70982;BME280;58640;51.320;9.456;2022-10-04T01:05:05;100200.00;;;7.43;91.97
70982;BME280;58640;51.320;9.456;2022-10-04T01:07:33;100214.50;;;7.40;92.12
70982;BME280;58640;51.320;9.456;2022-10-04T01:10:07;100224.38;;;7.40;92.25
70982;BME280;58640;51.320;9.456;2022-10-04T01:18:11;100201.69;;;7.44;92.63
70982;BME280;58640;51.320;9.456;2022-10-04T01:20:39;100199.03;;;7.44;92.93
70982;BME280;58640;51.320;9.456;2022-10-04T01:24:15;100188.16;;;7.36;93.83
70982;BME280;58640;51.320;9.456;2022-10-04T01:28:58;100210.13;;;7.30;94.54
70982;BME280;58640;51.320;9.456;2022-10-04T01:31:25;100211.41;;;7.35;93.89
70982;BME280;58640;51.320;9.456;2022-10-04T01:33:51;100218.31;;;7.38;94.16
70982;BME280;58640;51.320;9.456;2022-10-04T01:36:16;100221.72;;;7.40;93.82
70982;BME280;58640;51.320;9.456;2022-10-04T01:38:42;100221.28;;;7.44;93.87
70982;BME280;58640;51.320;9.456;2022-10-04T01:41:09;100204.53;;;7.52;92.65
70982;BME280;58640;51.320;9.456;2022-10-04T01:43:37;100188.63;;;7.51;91.64
70982;BME280;58640;51.320;9.456;2022-10-04T01:46:10;100196.38;;;7.54;91.90
70982;BME280;58640;51.320;9.456;2022-10-04T01:48:40;100193.53;;;7.55;91.00
70982;BME280;58640;51.320;9.456;2022-10-04T01:51:12;100176.22;;;7.50;92.10
70982;BME280;58640;51.320;9.456;2022-10-04T01:53:48;100172.13;;;7.45;92.53
70982;BME280;58640;51.320;9.456;2022-10-04T01:56:17;100162.84;;;7.50;92.75
70982;BME280;58640;51.320;9.456;2022-10-04T01:58:49;100160.31;;;7.48;92.99
70982;BME280;58640;51.320;9.456;2022-10-04T02:01:24;100168.63;;;7.45;93.12
70982;BME280;58640;51.320;9.456;2022-10-04T02:04:14;100160.44;;;7.47;93.07
70982;BME280;58640;51.320;9.456;2022-10-04T02:06:43;100167.03;;;7.42;93.07
70982;BME280;58640;51.320;9.456;2022-10-04T02:09:12;100167.88;;;7.33;93.79
70982;BME280;58640;51.320;9.456;2022-10-04T02:11:40;100164.09;;;7.45;93.04
70982;BME280;58640;51.320;9.456;2022-10-04T02:14:17;100153.97;;;7.59;92.16
70982;BME280;58640;51.320;9.456;2022-10-04T02:16:45;100154.09;;;7.47;91.36
70982;BME280;58640;51.320;9.456;2022-10-04T02:19:11;100163.94;;;7.47;92.13
70982;BME280;58640;51.320;9.456;2022-10-04T02:21:38;100155.09;;;7.47;92.37
70982;BME280;58640;51.320;9.456;2022-10-04T02:24:04;100153.66;;;7.42;92.89
70982;BME280;58640;51.320;9.456;2022-10-04T02:26:31;100151.25;;;7.39;92.67
70982;BME280;58640;51.320;9.456;2022-10-04T02:28:57;100159.72;;;7.44;92.69
70982;BME280;58640;51.320;9.456;2022-10-04T02:31:23;100154.25;;;7.46;92.34
70982;BME280;58640;51.320;9.456;2022-10-04T02:34:08;100160.44;;;7.47;92.28
70982;BME280;58640;51.320;9.456;2022-10-04T02:36:34;100159.88;;;7.53;91.73
70982;BME280;58640;51.320;9.456;2022-10-04T02:39:07;100151.44;;;7.57;91.46
70982;BME280;58640;51.320;9.456;2022-10-04T02:41:42;100146.66;;;7.51;91.71
70982;BME280;58640;51.320;9.456;2022-10-04T02:44:14;100145.78;;;7.41;92.27
70982;BME280;58640;51.320;9.456;2022-10-04T02:49:32;100141.72;;;7.47;92.18
70982;BME280;58640;51.320;9.456;2022-10-04T02:52:04;100138.19;;;7.46;92.55
70982;BME280;58640;51.320;9.456;2022-10-04T02:54:43;100130.16;;;7.46;92.79
70982;BME280;58640;51.320;9.456;2022-10-04T02:57:20;100134.78;;;7.44;92.79
70982;BME280;58640;51.320;9.456;2022-10-04T02:59:47;100127.75;;;7.53;92.31
70982;BME280;58640;51.320;9.456;2022-10-04T03:02:25;100135.78;;;7.53;92.60
70982;BME280;58640;51.320;9.456;2022-10-04T03:04:52;100121.84;;;7.49;92.99
70982;BME280;58640;51.320;9.456;2022-10-04T03:07:19;100123.66;;;7.48;92.85
70982;BME280;58640;51.320;9.456;2022-10-04T03:09:46;100118.16;;;7.50;93.14
70982;BME280;58640;51.320;9.456;2022-10-04T03:12:11;100123.66;;;7.48;92.96
70982;BME280;58640;51.320;9.456;2022-10-04T03:14:38;100126.75;;;7.44;94.18
70982;BME280;58640;51.320;9.456;2022-10-04T03:17:04;100124.38;;;7.51;93.48
70982;BME280;58640;51.320;9.456;2022-10-04T03:19:31;100129.13;;;7.37;94.38
70982;BME280;58640;51.320;9.456;2022-10-04T03:22:05;100130.28;;;7.44;94.14
70982;BME280;58640;51.320;9.456;2022-10-04T03:27:08;100115.91;;;7.45;94.15
70982;BME280;58640;51.320;9.456;2022-10-04T03:29:39;100122.41;;;7.43;94.46
70982;BME280;58640;51.320;9.456;2022-10-04T03:32:08;100117.47;;;7.38;95.43
70982;BME280;58640;51.320;9.456;2022-10-04T03:34:37;100117.78;;;7.55;93.71
70982;BME280;58640;51.320;9.456;2022-10-04T03:37:10;100117.63;;;7.47;94.51
70982;BME280;58640;51.320;9.456;2022-10-04T03:39:41;100118.88;;;7.52;94.20
70982;BME280;58640;51.320;9.456;2022-10-04T03:42:13;100120.53;;;7.43;95.18
70982;BME280;58640;51.320;9.456;2022-10-04T03:44:40;100119.59;;;7.54;94.71
70982;BME280;58640;51.320;9.456;2022-10-04T03:47:16;100122.84;;;7.58;94.07
70982;BME280;58640;51.320;9.456;2022-10-04T03:49:44;100112.66;;;7.52;93.80
70982;BME280;58640;51.320;9.456;2022-10-04T03:52:19;100112.94;;;7.48;93.96
70982;BME280;58640;51.320;9.456;2022-10-04T03:54:46;100123.81;;;7.57;94.09
70982;BME280;58640;51.320;9.456;2022-10-04T03:57:12;100126.47;;;7.57;93.56
70982;BME280;58640;51.320;9.456;2022-10-04T03:59:38;100119.16;;;7.49;94.66
70982;BME280;58640;51.320;9.456;2022-10-04T04:02:15;100114.94;;;7.47;94.67
70982;BME280;58640;51.320;9.456;2022-10-04T04:05:03;100118.31;;;7.48;94.49
70982;BME280;58640;51.320;9.456;2022-10-04T04:10:25;100104.91;;;7.48;94.57
70982;BME280;58640;51.320;9.456;2022-10-04T04:12:55;100097.75;;;7.49;94.35
70982;BME280;58640;51.320;9.456;2022-10-04T04:15:21;100114.22;;;7.44;95.00
70982;BME280;58640;51.320;9.456;2022-10-04T04:17:51;100116.63;;;7.57;94.29
70982;BME280;58640;51.320;9.456;2022-10-04T04:20:27;100116.63;;;7.67;93.66
70982;BME280;58640;51.320;9.456;2022-10-04T04:23:00;100110.72;;;7.63;93.68
70982;BME280;58640;51.320;9.456;2022-10-04T04:25:28;100102.81;;;7.62;94.06
70982;BME280;58640;51.320;9.456;2022-10-04T04:28:01;100094.06;;;7.60;94.21
70982;BME280;58640;51.320;9.456;2022-10-04T04:30:30;100095.78;;;7.70;93.45
70982;BME280;58640;51.320;9.456;2022-10-04T04:33:00;100095.22;;;7.67;93.16
70982;BME280;58640;51.320;9.456;2022-10-04T04:35:32;100103.66;;;7.53;93.49
70982;BME280;58640;51.320;9.456;2022-10-04T04:38:09;100109.03;;;7.62;93.31
70982;BME280;58640;51.320;9.456;2022-10-04T04:40:37;100105.78;;;7.59;93.40
70982;BME280;58640;51.320;9.456;2022-10-04T04:43:03;100113.94;;;7.57;92.78
70982;BME280;58640;51.320;9.456;2022-10-04T04:45:30;100104.63;;;7.52;93.37
70982;BME280;58640;51.320;9.456;2022-10-04T04:47:58;100109.59;;;7.47;93.84
70982;BME280;58640;51.320;9.456;2022-10-04T04:50:31;100107.06;;;7.35;94.35
70982;BME280;58640;51.320;9.456;2022-10-04T04:53:04;100111.56;;;7.44;93.87
70982;BME280;58640;51.320;9.456;2022-10-04T04:55:45;100105.63;;;7.41;94.38
70982;BME280;58640;51.320;9.456;2022-10-04T04:58:19;100099.13;;;7.43;93.55
70982;BME280;58640;51.320;9.456;2022-10-04T05:00:51;100092.81;;;7.54;92.91
70982;BME280;58640;51.320;9.456;2022-10-04T05:03:17;100088.31;;;7.45;93.32
70982;BME280;58640;51.320;9.456;2022-10-04T05:05:44;100088.44;;;7.43;93.54
70982;BME280;58640;51.320;9.456;2022-10-04T05:10:53;100075.75;;;7.55;93.29
70982;BME280;58640;51.320;9.456;2022-10-04T05:13:38;100077.34;;;7.48;93.39
70982;BME280;58640;51.320;9.456;2022-10-04T05:16:10;100077.03;;;7.41;93.82
70982;BME280;58640;51.320;9.456;2022-10-04T05:18:37;100078.16;;;7.39;94.30
70982;BME280;58640;51.320;9.456;2022-10-04T05:21:10;100076.19;;;7.41;94.12
70982;BME280;58640;51.320;9.456;2022-10-04T05:23:37;100073.78;;;7.38;94.39
70982;BME280;58640;51.320;9.456;2022-10-04T05:26:03;100064.38;;;7.53;94.51
70982;BME280;58640;51.320;9.456;2022-10-04T05:28:34;100071.25;;;7.46;93.57
70982;BME280;58640;51.320;9.456;2022-10-04T05:33:48;100068.31;;;7.49;93.88
70982;BME280;58640;51.320;9.456;2022-10-04T05:42:40;100072.41;;;7.53;93.81
70982;BME280;58640;51.320;9.456;2022-10-04T05:45:16;100078.00;;;7.60;93.29
70982;BME280;58640;51.320;9.456;2022-10-04T05:47:43;100079.00;;;7.59;93.49
70982;BME280;58640;51.320;9.456;2022-10-04T05:50:16;100075.75;;;7.55;93.71
70982;BME280;58640;51.320;9.456;2022-10-04T05:52:46;100063.53;;;7.53;94.73
70982;BME280;58640;51.320;9.456;2022-10-04T05:55:36;100075.47;;;7.68;93.98
70982;BME280;58640;51.320;9.456;2022-10-04T06:01:15;100071.97;;;7.67;94.14
70982;BME280;58640;51.320;9.456;2022-10-04T06:09:31;100089.56;;;7.70;94.79
70982;BME280;58640;51.320;9.456;2022-10-04T06:12:09;100101.72;;;7.74;94.62
70982;BME280;58640;51.320;9.456;2022-10-04T06:15:08;100108.59;;;7.76;94.84
70982;BME280;58640;51.320;9.456;2022-10-04T06:23:17;100109.59;;;7.94;93.50
70982;BME280;58640;51.320;9.456;2022-10-04T06:26:17;100119.00;;;7.98;93.43
70982;BME280;58640;51.320;9.456;2022-10-04T06:29:02;100120.13;;;8.15;92.04
70982;BME280;58640;51.320;9.456;2022-10-04T06:34:39;100115.84;;;8.22;92.48
70982;BME280;58640;51.320;9.456;2022-10-04T06:37:34;100107.00;;;8.31;91.72
70982;BME280;58640;51.320;9.456;2022-10-04T06:46:16;100105.69;;;8.44;90.55
70982;BME280;58640;51.320;9.456;2022-10-04T07:00:00;100130.56;;;8.73;89.39
70982;BME280;58640;51.320;9.456;2022-10-04T07:02:33;100135.72;;;8.84;88.79
70982;BME280;58640;51.320;9.456;2022-10-04T07:05:07;100136.19;;;8.80;88.84
70982;BME280;58640;51.320;9.456;2022-10-04T07:07:40;100134.41;;;8.98;87.82
70982;BME280;58640;51.320;9.456;2022-10-04T07:10:32;100130.03;;;8.97;87.62
70982;BME280;58640;51.320;9.456;2022-10-04T07:16:02;100142.25;;;9.09;87.29
70982;BME280;58640;51.320;9.456;2022-10-04T07:18:41;100142.22;;;9.19;87.19
70982;BME280;58640;51.320;9.456;2022-10-04T07:21:11;100136.22;;;9.25;86.36
70982;BME280;58640;51.320;9.456;2022-10-04T07:23:48;100141.69;;;9.33;85.90
70982;BME280;58640;51.320;9.456;2022-10-04T07:26:33;100138.66;;;9.45;85.92
70982;BME280;58640;51.320;9.456;2022-10-04T07:29:10;100126.00;;;9.90;84.29
70982;BME280;58640;51.320;9.456;2022-10-04T07:31:50;100120.69;;;9.98;83.81
70982;BME280;58640;51.320;9.456;2022-10-04T07:34:22;100125.59;;;10.20;83.36
70982;BME280;58640;51.320;9.456;2022-10-04T07:37:15;100125.09;;;10.43;81.72
70982;BME280;58640;51.320;9.456;2022-10-04T07:45:20;100118.63;;;11.36;77.63
70982;BME280;58640;51.320;9.456;2022-10-04T07:47:46;100129.34;;;11.78;76.14
70982;BME280;58640;51.320;9.456;2022-10-04T07:50:24;100116.22;;;11.75;75.87
70982;BME280;58640;51.320;9.456;2022-10-04T07:52:59;100125.31;;;12.22;74.77
70982;BME280;58640;51.320;9.456;2022-10-04T07:55:31;100136.44;;;12.43;72.87
70982;BME280;58640;51.320;9.456;2022-10-04T08:06:06;100111.53;;;11.93;75.05
70982;BME280;58640;51.320;9.456;2022-10-04T08:14:21;100102.56;;;11.85;75.56
70982;BME280;58640;51.320;9.456;2022-10-04T08:17:18;100090.47;;;11.72;76.59
70982;BME280;58640;51.320;9.456;2022-10-04T08:27:38;100091.22;;;13.47;70.89
70982;BME280;58640;51.320;9.456;2022-10-04T08:30:11;100100.47;;;13.97;68.17
70982;BME280;58640;51.320;9.456;2022-10-04T08:33:06;100099.31;;;13.92;67.27
70982;BME280;58640;51.320;9.456;2022-10-04T08:35:39;100097.03;;;14.03;67.65
70982;BME280;58640;51.320;9.456;2022-10-04T08:38:31;100093.25;;;14.49;64.78
70982;BME280;58640;51.320;9.456;2022-10-04T08:44:22;100098.28;;;13.48;67.70
70982;BME280;58640;51.320;9.456;2022-10-04T08:50:26;100107.16;;;13.64;67.22
70982;BME280;58640;51.320;9.456;2022-10-04T08:56:08;100102.06;;;14.66;65.99
70982;BME280;58640;51.320;9.456;2022-10-04T09:07:45;100101.69;;;14.98;64.03
70982;BME280;58640;51.320;9.456;2022-10-04T09:10:34;100102.50;;;14.55;64.10
70982;BME280;58640;51.320;9.456;2022-10-04T09:30:31;100098.28;;;16.73;57.95
70982;BME280;58640;51.320;9.456;2022-10-04T09:33:40;100096.09;;;16.55;58.00
70982;BME280;58640;51.320;9.456;2022-10-04T09:36:24;100096.38;;;16.67;58.57
70982;BME280;58640;51.320;9.456;2022-10-04T09:39:16;100098.31;;;16.24;58.83
70982;BME280;58640;51.320;9.456;2022-10-04T09:55:51;100108.41;;;16.30;59.69
70982;BME280;58640;51.320;9.456;2022-10-04T10:01:40;100088.78;;;16.35;57.42
70982;BME280;58640;51.320;9.456;2022-10-04T10:10:20;100089.13;;;17.14;56.51
70982;BME280;58640;51.320;9.456;2022-10-04T10:22:24;100075.53;;;17.14;55.95
70982;BME280;58640;51.320;9.456;2022-10-04T10:36:20;100077.25;;;16.81;56.72
70982;BME280;58640;51.320;9.456;2022-10-04T10:42:04;100074.28;;;16.76;58.18
70982;BME280;58640;51.320;9.456;2022-10-04T10:47:52;100070.47;;;16.71;58.31
70982;BME280;58640;51.320;9.456;2022-10-04T10:54:04;100066.53;;;16.73;56.67
70982;BME280;58640;51.320;9.456;2022-10-04T10:56:42;100058.06;;;16.55;57.38
70982;BME280;58640;51.320;9.456;2022-10-04T11:05:33;100047.81;;;16.30;57.96
70982;BME280;58640;51.320;9.456;2022-10-04T11:16:45;100050.44;;;16.17;57.94
70982;BME280;58640;51.320;9.456;2022-10-04T11:22:57;100051.22;;;16.10;58.64
70982;BME280;58640;51.320;9.456;2022-10-04T11:28:43;100036.84;;;15.89;59.44
70982;BME280;58640;51.320;9.456;2022-10-04T11:51:49;100005.22;;;15.54;59.84
70982;BME280;58640;51.320;9.456;2022-10-04T11:57:13;99999.66;;;15.41;60.85
70982;BME280;58640;51.320;9.456;2022-10-04T12:00:07;99991.81;;;15.31;61.26
70982;BME280;58640;51.320;9.456;2022-10-04T12:03:18;99984.34;;;15.33;61.63
70982;BME280;58640;51.320;9.456;2022-10-04T12:06:02;99987.47;;;15.37;62.70
70982;BME280;58640;51.320;9.456;2022-10-04T12:09:01;99987.41;;;15.30;62.62
70982;BME280;58640;51.320;9.456;2022-10-04T12:29:02;99970.84;;;15.40;60.88
70982;BME280;58640;51.320;9.456;2022-10-04T12:31:49;99968.41;;;15.45;59.75
70982;BME280;58640;51.320;9.456;2022-10-04T12:43:05;99948.34;;;15.60;60.79
70982;BME280;58640;51.320;9.456;2022-10-04T12:51:39;99936.91;;;15.65;58.99
70982;BME280;58640;51.320;9.456;2022-10-04T12:57:03;99926.69;;;15.67;59.87
70982;BME280;58640;51.320;9.456;2022-10-04T13:10:41;99903.88;;;15.82;60.53
70982;BME280;58640;51.320;9.456;2022-10-04T13:13:42;99911.31;;;15.74;58.70
70982;BME280;58640;51.320;9.456;2022-10-04T13:22:04;99915.44;;;15.97;56.83
70982;BME280;58640;51.320;9.456;2022-10-04T13:27:56;99906.34;;;15.77;56.26
70982;BME280;58640;51.320;9.456;2022-10-04T13:30:48;99901.34;;;15.81;56.03
70982;BME280;58640;51.320;9.456;2022-10-04T13:33:27;99896.56;;;15.83;56.93
70982;BME280;58640;51.320;9.456;2022-10-04T13:50:11;99911.31;;;16.01;55.67
70982;BME280;58640;51.320;9.456;2022-10-04T13:53:00;99891.22;;;15.96;57.03
70982;BME280;58640;51.320;9.456;2022-10-04T13:58:54;99880.84;;;16.06;55.94
70982;BME280;58640;51.320;9.456;2022-10-04T14:01:33;99878.59;;;16.09;55.60
70982;BME280;58640;51.320;9.456;2022-10-04T14:07:27;99871.72;;;16.20;56.50
70982;BME280;58640;51.320;9.456;2022-10-04T14:18:41;99863.38;;;16.22;55.26
70982;BME280;58640;51.320;9.456;2022-10-04T14:30:20;99843.16;;;16.24;55.60
70982;BME280;58640;51.320;9.456;2022-10-04T14:33:25;99842.72;;;16.21;54.86
70982;BME280;58640;51.320;9.456;2022-10-04T14:38:51;99843.13;;;16.18;55.10
70982;BME280;58640;51.320;9.456;2022-10-04T15:01:30;99818.06;;;16.16;55.04
70982;BME280;58640;51.320;9.456;2022-10-04T15:04:11;99822.59;;;16.08;55.27
70982;BME280;58640;51.320;9.456;2022-10-04T15:06:48;99821.41;;;16.18;54.56
70982;BME280;58640;51.320;9.456;2022-10-04T15:09:41;99817.88;;;16.17;54.52
70982;BME280;58640;51.320;9.456;2022-10-04T15:20:57;99822.81;;;16.07;55.40
70982;BME280;58640;51.320;9.456;2022-10-04T15:23:34;99814.88;;;16.05;55.44
70982;BME280;58640;51.320;9.456;2022-10-04T15:29:08;99812.78;;;16.01;56.09
70982;BME280;58640;51.320;9.456;2022-10-04T15:31:52;99811.69;;;15.89;55.79
70982;BME280;58640;51.320;9.456;2022-10-04T15:34:45;99808.94;;;15.82;55.95
70982;BME280;58640;51.320;9.456;2022-10-04T15:48:33;99828.47;;;15.71;55.64
70982;BME280;58640;51.320;9.456;2022-10-04T15:51:37;99823.28;;;15.76;55.66
70982;BME280;58640;51.320;9.456;2022-10-04T15:57:02;99813.22;;;15.70;56.02
70982;BME280;58640;51.320;9.456;2022-10-04T16:02:30;99799.16;;;15.54;56.73
70982;BME280;58640;51.320;9.456;2022-10-04T16:05:16;99794.31;;;15.49;57.41
70982;BME280;58640;51.320;9.456;2022-10-04T16:32:08;99803.38;;;14.87;60.51
70982;BME280;58640;51.320;9.456;2022-10-04T16:37:52;99821.34;;;14.73;61.28
70982;BME280;58640;51.320;9.456;2022-10-04T16:48:13;99840.16;;;14.39;62.61
70982;BME280;58640;51.320;9.456;2022-10-04T16:55:57;99836.50;;;14.17;63.62
70982;BME280;58640;51.320;9.456;2022-10-04T16:58:34;99845.56;;;14.10;63.84
70982;BME280;58640;51.320;9.456;2022-10-04T17:01:35;99850.41;;;14.00;64.27
70982;BME280;58640;51.320;9.456;2022-10-04T17:06:47;99845.47;;;13.89;64.82
70982;BME280;58640;51.320;9.456;2022-10-04T17:14:35;99848.09;;;13.82;65.25
70982;BME280;58640;51.320;9.456;2022-10-04T17:17:30;99850.41;;;13.71;65.42
70982;BME280;58640;51.320;9.456;2022-10-04T17:26:34;99836.72;;;13.72;65.52
70982;BME280;58640;51.320;9.456;2022-10-04T17:32:02;99853.13;;;13.56;65.95
70982;BME280;58640;51.320;9.456;2022-10-04T17:47:59;99854.38;;;13.31;66.79
70982;BME280;58640;51.320;9.456;2022-10-04T17:51:26;99862.25;;;13.18;67.72
70982;BME280;58640;51.320;9.456;2022-10-04T17:54:23;99851.81;;;13.15;68.33
70982;BME280;58640;51.320;9.456;2022-10-04T17:57:27;99859.47;;;13.26;68.13
70982;BME280;58640;51.320;9.456;2022-10-04T18:00:08;99861.91;;;13.21;68.14
70982;BME280;58640;51.320;9.456;2022-10-04T18:06:30;99861.19;;;13.04;68.98
70982;BME280;58640;51.320;9.456;2022-10-04T18:14:08;99860.94;;;13.14;68.19
70982;BME280;58640;51.320;9.456;2022-10-04T18:19:51;99863.69;;;13.29;67.74
70982;BME280;58640;51.320;9.456;2022-10-04T18:22:23;99866.47;;;13.20;68.16
70982;BME280;58640;51.320;9.456;2022-10-04T18:25:13;99877.28;;;13.20;68.24
70982;BME280;58640;51.320;9.456;2022-10-04T18:28:00;99872.13;;;13.11;68.67
70982;BME280;58640;51.320;9.456;2022-10-04T18:30:30;99872.66;;;13.06;68.74
70982;BME280;58640;51.320;9.456;2022-10-04T18:32:57;99878.53;;;13.10;68.73
70982;BME280;58640;51.320;9.456;2022-10-04T18:37:52;99864.88;;;13.11;68.55
70982;BME280;58640;51.320;9.456;2022-10-04T18:40:21;99865.69;;;13.12;68.55
70982;BME280;58640;51.320;9.456;2022-10-04T18:42:56;99862.69;;;13.07;68.97
70982;BME280;58640;51.320;9.456;2022-10-04T18:45:27;99867.13;;;13.00;69.23
70982;BME280;58640;51.320;9.456;2022-10-04T18:47:54;99866.31;;;12.91;69.75
70982;BME280;58640;51.320;9.456;2022-10-04T18:50:36;99866.13;;;12.93;69.44
70982;BME280;58640;51.320;9.456;2022-10-04T18:56:11;99878.69;;;12.86;69.94
70982;BME280;58640;51.320;9.456;2022-10-04T19:01:48;99880.59;;;12.77;70.54
70982;BME280;58640;51.320;9.456;2022-10-04T19:04:28;99889.72;;;12.76;70.48
70982;BME280;58640;51.320;9.456;2022-10-04T19:07:10;99879.16;;;12.67;70.96
70982;BME280;58640;51.320;9.456;2022-10-04T19:12:46;99873.00;;;12.50;71.89
70982;BME280;58640;51.320;9.456;2022-10-04T19:20:49;99878.50;;;12.34;72.86
70982;BME280;58640;51.320;9.456;2022-10-04T19:23:43;99882.25;;;12.25;73.26
70982;BME280;58640;51.320;9.456;2022-10-04T19:26:29;99888.81;;;12.23;73.63
70982;BME280;58640;51.320;9.456;2022-10-04T19:29:16;99892.88;;;12.27;73.41
70982;BME280;58640;51.320;9.456;2022-10-04T19:32:12;99890.25;;;12.11;74.27
70982;BME280;58640;51.320;9.456;2022-10-04T19:34:59;99896.81;;;12.00;74.67
70982;BME280;58640;51.320;9.456;2022-10-04T19:37:37;99889.44;;;11.94;74.90
70982;BME280;58640;51.320;9.456;2022-10-04T19:40:21;99883.41;;;11.84;75.55
70982;BME280;58640;51.320;9.456;2022-10-04T19:43:02;99897.56;;;11.78;75.84
70982;BME280;58640;51.320;9.456;2022-10-04T19:45:36;99900.59;;;11.83;75.68
70982;BME280;58640;51.320;9.456;2022-10-04T19:48:16;99901.25;;;11.93;75.08
70982;BME280;58640;51.320;9.456;2022-10-04T19:50:48;99894.66;;;11.96;75.03
70982;BME280;58640;51.320;9.456;2022-10-04T19:56:06;99902.97;;;11.78;75.97
70982;BME280;58640;51.320;9.456;2022-10-04T20:01:10;99892.03;;;11.63;76.60
70982;BME280;58640;51.320;9.456;2022-10-04T20:03:36;99893.75;;;11.64;76.27
70982;BME280;58640;51.320;9.456;2022-10-04T20:06:02;99900.25;;;11.62;76.52
70982;BME280;58640;51.320;9.456;2022-10-04T20:11:20;99900.09;;;11.55;76.66
70982;BME280;58640;51.320;9.456;2022-10-04T20:21:39;99890.19;;;11.48;76.97
70982;BME280;58640;51.320;9.456;2022-10-04T20:24:14;99889.00;;;11.42;77.11
70982;BME280;58640;51.320;9.456;2022-10-04T20:26:42;99889.69;;;11.44;77.06
70982;BME280;58640;51.320;9.456;2022-10-04T20:32:00;99878.75;;;11.46;77.30
70982;BME280;58640;51.320;9.456;2022-10-04T20:37:07;99886.47;;;11.41;77.61
70982;BME280;58640;51.320;9.456;2022-10-04T20:44:54;99879.78;;;11.37;77.30
70982;BME280;58640;51.320;9.456;2022-10-04T20:50:20;99859.41;;;11.34;77.68
70982;BME280;58640;51.320;9.456;2022-10-04T20:52:51;99847.78;;;11.34;77.88
70982;BME280;58640;51.320;9.456;2022-10-04T20:55:28;99851.00;;;11.29;78.08
70982;BME280;58640;51.320;9.456;2022-10-04T20:57:58;99854.19;;;11.25;78.87
70982;BME280;58640;51.320;9.456;2022-10-04T21:00:26;99857.88;;;11.32;77.81
70982;BME280;58640;51.320;9.456;2022-10-04T21:03:16;99871.03;;;11.27;78.52
70982;BME280;58640;51.320;9.456;2022-10-04T21:05:43;99862.78;;;11.28;78.22
70982;BME280;58640;51.320;9.456;2022-10-04T21:08:23;99861.44;;;11.24;78.88
70982;BME280;58640;51.320;9.456;2022-10-04T21:14:00;99860.59;;;11.16;79.14
70982;BME280;58640;51.320;9.456;2022-10-04T21:16:32;99860.59;;;11.08;80.27
70982;BME280;58640;51.320;9.456;2022-10-04T21:22:02;99856.06;;;11.08;80.26
70982;BME280;58640;51.320;9.456;2022-10-04T21:27:34;99846.16;;;10.93;81.73
70982;BME280;58640;51.320;9.456;2022-10-04T21:30:05;99840.59;;;11.02;81.32
70982;BME280;58640;51.320;9.456;2022-10-04T21:32:35;99837.06;;;11.02;81.28
70982;BME280;58640;51.320;9.456;2022-10-04T21:35:01;99834.00;;;11.05;81.11
70982;BME280;58640;51.320;9.456;2022-10-04T21:37:28;99841.06;;;11.14;81.38
70982;BME280;58640;51.320;9.456;2022-10-04T21:39:53;99838.06;;;11.09;81.77
70982;BME280;58640;51.320;9.456;2022-10-04T21:42:24;99836.72;;;11.05;82.18
70982;BME280;58640;51.320;9.456;2022-10-04T21:44:50;99833.31;;;11.27;81.28
70982;BME280;58640;51.320;9.456;2022-10-04T21:47:16;99837.22;;;11.24;81.09
70982;BME280;58640;51.320;9.456;2022-10-04T21:49:44;99840.72;;;11.25;81.23
70982;BME280;58640;51.320;9.456;2022-10-04T21:52:10;99848.59;;;11.42;80.51
70982;BME280;58640;51.320;9.456;2022-10-04T21:54:35;99846.75;;;11.43;80.21
70982;BME280;58640;51.320;9.456;2022-10-04T21:57:00;99844.06;;;11.43;80.17
70982;BME280;58640;51.320;9.456;2022-10-04T21:59:26;99844.75;;;11.37;80.21
70982;BME280;58640;51.320;9.456;2022-10-04T22:01:51;99843.06;;;11.44;80.01
70982;BME280;58640;51.320;9.456;2022-10-04T22:04:17;99844.41;;;11.40;80.20
70982;BME280;58640;51.320;9.456;2022-10-04T22:06:46;99832.63;;;11.33;80.46
70982;BME280;58640;51.320;9.456;2022-10-04T22:09:14;99835.31;;;11.33;80.45
70982;BME280;58640;51.320;9.456;2022-10-04T22:11:41;99836.16;;;11.33;80.64
70982;BME280;58640;51.320;9.456;2022-10-04T22:14:07;99826.59;;;11.23;81.26
70982;BME280;58640;51.320;9.456;2022-10-04T22:16:32;99825.91;;;11.29;81.04
70982;BME280;58640;51.320;9.456;2022-10-04T22:18:57;99819.88;;;11.19;81.47
70982;BME280;58640;51.320;9.456;2022-10-04T22:21:26;99814.47;;;11.19;81.58
70982;BME280;58640;51.320;9.456;2022-10-04T22:23:51;99806.72;;;11.24;81.29